Little Fort, Canada
Current Conditions -  °F | °C
As of 3:00 AM on Wednesday 22 Oct 2014 (Local Time) from CYKA Reporting Station
Overcast Overcast  
Wind Chill: 59°   Ceiling: 12000
Heat Index: 59°   Visibility: 40mi
Dew Point: 37°   Wind: 15mph
Humidity: 45%   Direction: 110°ESE
Pressure: 29.65"   Gusts: 22mph
Location:  51.43°N, 120.2°W
Report Text: CYKA 221000Z 11013G19KT 40SM OVC120 15/03 A2965 RMK AC8 SLP041 DENSITY ALT 1600FT
Loading
Personal Weather Stations






























Interactive Weather Map New forecast layout! Learn more

10-Day Weather Forecast

Advertisements
Track Severe Weather on mobile